Time;durP1;ratioP1;P1;durP2;ratioP2;P2;SDS_P1;SDS_P2;PMS_P1;PMS_P2;Temp;Humidity;BMP_temperature;BMP_pressure;BME280_temperature;BME280_humidity;BME280_pressure;Samples;Min_cycle;Max_cycle;Signal;HPM_P1;HPM_P2
2023/10/02 00:00:43;;;;;;;7.03;4.40;;;;;;;19.07;91.74;99799.91;5090151;28;20287;-73
2023/10/02 00:03:09;;;;;;;4.30;4.03;;;;;;;19.11;91.62;99796.22;5090691;28;20232;-74
2023/10/02 00:05:50;;;;;;;4.77;4.20;;;;;;;19.11;91.82;99807.47;5090540;28;20199;-74
2023/10/02 00:08:31;;;;;;;4.50;4.27;;;;;;;19.00;91.83;99790.81;5090575;28;20264;-72
2023/10/02 00:11:05;;;;;;;4.23;3.93;;;;;;;19.05;91.74;99812.16;5090811;28;20200;-73
2023/10/02 00:13:32;;;;;;;4.97;4.57;;;;;;;19.04;91.95;99808.72;5090920;28;20219;-73
2023/10/02 00:16:00;;;;;;;4.17;3.90;;;;;;;19.06;91.80;99806.06;5090574;28;20203;-73
2023/10/02 00:18:28;;;;;;;5.67;4.50;;;;;;;19.02;91.98;99802.81;5089716;28;20199;-73
2023/10/02 00:23:36;;;;;;;4.07;3.77;;;;;;;19.00;92.01;99803.81;5089785;28;20679;-73
2023/10/02 00:26:20;;;;;;;4.23;3.87;;;;;;;18.97;92.24;99810.00;5090248;28;20255;-73
2023/10/02 00:28:47;;;;;;;5.27;4.83;;;;;;;18.92;92.34;99801.66;5090349;28;20201;-73
2023/10/02 00:31:32;;;;;;;6.80;4.13;;;;;;;18.86;92.54;99799.41;5090245;28;20198;-73
2023/10/02 00:33:59;;;;;;;4.50;4.10;;;;;;;18.83;93.01;99797.00;5088809;28;20199;-73
2023/10/02 00:36:29;;;;;;;4.87;4.47;;;;;;;18.41;92.84;99735.34;5090635;28;20726;-74
2023/10/02 00:39:24;;;;;;;5.27;4.27;;;;;;;18.82;93.19;99796.16;5090278;28;20282;-73
2023/10/02 00:42:10;;;;;;;4.50;4.10;;;;;;;18.78;92.80;99794.66;5090178;28;20203;-72
2023/10/02 00:47:35;;;;;;;5.13;4.00;;;;;;;18.81;93.08;99806.63;5089705;28;20193;-74
2023/10/02 00:50:08;;;;;;;5.30;4.80;;;;;;;18.81;93.08;99804.88;5090242;28;20195;-73
2023/10/02 00:52:40;;;;;;;4.57;4.17;;;;;;;18.79;93.43;99811.91;5089981;28;20199;-73
2023/10/02 00:55:09;;;;;;;4.43;4.00;;;;;;;18.76;93.17;99800.88;5088556;28;20192;-73
2023/10/02 00:57:37;;;;;;;5.17;4.60;;;;;;;18.80;93.29;99808.38;5090524;28;20201;-73
2023/10/02 01:00:06;;;;;;;4.53;4.27;;;;;;;18.82;93.00;99814.34;5087721;28;20670;-73
2023/10/02 01:02:39;;;;;;;7.80;4.10;;;;;;;18.84;92.86;99809.88;5092215;28;20206;-73
2023/10/02 01:05:14;;;;;;;5.30;3.77;;;;;;;18.84;92.55;99804.69;5093691;28;20266;-74
2023/10/02 01:07:41;;;;;;;5.30;4.27;;;;;;;18.82;92.43;99803.94;5093770;28;20206;-74
2023/10/02 01:10:17;;;;;;;7.13;4.30;;;;;;;18.83;92.62;99813.44;5094187;28;20196;-73
2023/10/02 01:12:49;;;;;;;5.77;4.70;;;;;;;18.83;92.67;99807.38;5094105;28;20206;-73
2023/10/02 01:15:19;;;;;;;6.10;4.53;;;;;;;18.85;92.51;99808.13;5094037;28;20246;-72
2023/10/02 01:17:49;;;;;;;4.77;4.47;;;;;;;18.83;92.67;99821.22;5093310;28;20201;-73
2023/10/02 01:20:32;;;;;;;3.60;3.40;;;;;;;18.81;92.60;99817.00;5093597;28;20708;-73
2023/10/02 01:23:11;;;;;;;4.70;4.13;;;;;;;18.80;92.65;99828.34;5093487;28;20213;-73
2023/10/02 01:25:42;;;;;;;4.23;3.80;;;;;;;18.72;93.12;99823.56;5093731;28;20211;-73
2023/10/02 01:28:10;;;;;;;5.03;4.63;;;;;;;18.72;92.86;99823.56;5093723;28;20206;-73
2023/10/02 01:30:37;;;;;;;5.40;4.90;;;;;;;18.66;93.13;99816.13;5093550;28;20199;-73
2023/10/02 01:33:14;;;;;;;4.00;3.70;;;;;;;18.62;93.28;99809.44;5093627;28;20214;-73
2023/10/02 01:35:46;;;;;;;5.27;4.77;;;;;;;18.58;93.65;99807.13;5093563;28;20195;-73
2023/10/02 01:38:14;;;;;;;5.77;5.10;;;;;;;18.58;93.48;99813.13;5093032;28;20195;-74
2023/10/02 01:40:48;;;;;;;4.60;4.30;;;;;;;18.59;93.65;99817.41;5093082;28;20199;-73
2023/10/02 01:43:16;;;;;;;4.77;4.40;;;;;;;18.56;94.03;99809.78;5092683;28;20586;-73
2023/10/02 01:45:44;;;;;;;8.27;4.83;;;;;;;18.53;93.96;99794.38;5093456;28;20652;-73
2023/10/02 01:48:15;;;;;;;4.23;3.83;;;;;;;18.57;94.15;99810.63;5093304;28;20211;-74
2023/10/02 01:50:43;;;;;;;6.07;5.23;;;;;;;18.54;94.46;99800.41;5093174;28;20205;-73
2023/10/02 01:53:29;;;;;;;4.23;3.83;;;;;;;18.48;94.50;99796.34;5093376;28;20354;-73
2023/10/02 01:56:11;;;;;;;5.47;3.57;;;;;;;18.48;94.70;99791.16;5092480;28;20199;-74
2023/10/02 01:58:39;;;;;;;9.23;5.20;;;;;;;18.61;93.98;99797.34;5093225;28;20284;-73
2023/10/02 02:01:07;;;;;;;4.93;4.03;;;;;;;18.59;93.97;99804.41;5092905;28;20762;-74
2023/10/02 02:03:36;;;;;;;6.70;4.17;;;;;;;18.62;93.67;99806.84;5093012;28;20668;-73
2023/10/02 02:06:08;;;;;;;8.47;4.30;;;;;;;18.63;93.57;99803.31;5093025;28;20756;-73
2023/10/02 02:08:36;;;;;;;4.90;4.20;;;;;;;18.63;93.45;99805.91;5093161;28;20232;-74
2023/10/02 02:11:16;;;;;;;5.23;4.73;;;;;;;18.61;93.25;99805.16;5092822;28;20235;-73
2023/10/02 02:13:46;;;;;;;5.00;3.83;;;;;;;18.57;93.25;99798.47;5091720;28;20200;-72
2023/10/02 02:16:15;;;;;;;6.53;4.87;;;;;;;18.56;93.41;99807.19;5088641;28;20212;-73
2023/10/02 02:18:43;;;;;;;6.20;5.47;;;;;;;18.54;93.27;99800.41;5092398;28;20192;-73
2023/10/02 02:21:18;;;;;;;7.23;4.60;;;;;;;18.59;93.32;99794.03;5091472;28;20289;-74
2023/10/02 02:23:46;;;;;;;6.10;4.87;;;;;;;18.56;93.34;99799.41;5092974;28;20191;-73
2023/10/02 02:26:21;;;;;;;5.00;3.77;;;;;;;18.56;93.28;99794.19;5092646;28;20707;-74
2023/10/02 02:28:52;;;;;;;4.47;3.97;;;;;;;18.55;93.37;99792.53;5092883;28;20204;-74
2023/10/02 02:31:32;;;;;;;4.10;3.70;;;;;;;18.56;93.39;99794.19;5092853;28;20288;-74
2023/10/02 02:34:02;;;;;;;5.20;4.67;;;;;;;18.58;93.39;99796.72;5092278;28;20285;-73
2023/10/02 02:36:34;;;;;;;6.60;5.27;;;;;;;18.59;92.86;99799.22;5092526;28;20234;-73
2023/10/02 02:39:16;;;;;;;14.13;4.83;;;;;;;18.61;93.21;99804.34;5092330;28;20204;-74
2023/10/02 02:41:47;;;;;;;7.53;3.87;;;;;;;18.60;92.85;99795.72;5092502;28;20200;-73
2023/10/02 02:47:00;;;;;;;4.03;3.73;;;;;;;18.59;92.73;99794.03;5091724;28;20284;-73
2023/10/02 02:49:29;;;;;;;4.07;3.77;;;;;;;18.60;92.59;99794.88;5091658;28;20195;-73
2023/10/02 02:51:56;;;;;;;5.53;4.20;;;;;;;18.60;92.86;99793.13;5092316;28;20205;-74
2023/10/02 02:54:28;;;;;;;12.70;4.80;;;;;;;18.63;92.50;99795.53;5091871;28;20272;-73
2023/10/02 02:57:00;;;;;;;9.50;5.17;;;;;;;18.67;92.45;99789.25;5092496;28;20233;-74
2023/10/02 02:59:28;;;;;;;6.37;5.77;;;;;;;18.70;91.86;99786.47;5092129;28;20556;-73
2023/10/02 03:02:08;;;;;;;5.40;4.13;;;;;;;18.73;91.77;99788.91;5091700;28;20745;-74
2023/10/02 03:04:38;;;;;;;5.77;5.03;;;;;;;18.74;91.87;99785.34;5090979;28;20230;-73
2023/10/02 03:07:09;;;;;;;4.17;3.90;;;;;;;18.75;91.83;99794.81;5091755;28;20205;-73
2023/10/02 03:09:36;;;;;;;4.60;3.97;;;;;;;18.78;91.41;99799.00;5091638;28;20195;-74
2023/10/02 03:12:05;;;;;;;5.63;5.13;;;;;;;18.74;91.54;99795.75;5087788;28;20202;-73
2023/10/02 03:14:34;;;;;;;5.97;3.60;;;;;;;18.70;91.49;99785.63;5091170;28;20212;-73
2023/10/02 03:17:22;;;;;;;3.73;3.53;;;;;;;18.79;91.11;99805.88;5090903;28;20287;-73
2023/10/02 03:19:49;;;;;;;4.30;4.00;;;;;;;18.78;91.22;99806.78;5090161;28;20228;-73
2023/10/02 03:22:17;;;;;;;5.90;4.17;;;;;;;18.76;91.17;99809.50;5091763;28;20594;-72
2023/10/02 03:24:46;;;;;;;4.33;4.00;;;;;;;18.75;90.90;99820.81;5090254;28;20214;-73
2023/10/02 03:27:14;;;;;;;4.83;4.43;;;;;;;18.76;90.33;99821.66;5091786;28;20292;-73
2023/10/02 03:29:42;;;;;;;4.63;4.33;;;;;;;18.75;90.37;99815.59;5091537;28;20195;-73
2023/10/02 03:32:11;;;;;;;5.80;3.90;;;;;;;18.75;90.11;99819.97;5091565;28;20671;-73
2023/10/02 03:34:38;;;;;;;4.47;3.97;;;;;;;18.76;89.78;99829.44;5091445;28;20188;-72
2023/10/02 03:37:13;;;;;;;5.47;3.63;;;;;;;18.75;89.34;99823.41;5091493;28;20714;-73
2023/10/02 03:39:59;;;;;;;5.17;3.00;;;;;;;18.78;88.49;99825.81;5091240;28;20301;-74
2023/10/02 03:42:30;;;;;;;3.83;3.13;;;;;;;18.77;88.12;99829.34;5091254;28;20638;-72
2023/10/02 03:44:59;;;;;;;4.03;3.17;;;;;;;18.77;88.05;99829.34;5091064;28;20259;-73
2023/10/02 03:47:30;;;;;;;3.13;2.90;;;;;;;18.80;87.56;99831.75;5091271;28;20227;-72
2023/10/02 03:50:00;;;;;;;3.80;3.57;;;;;;;18.79;87.07;99835.28;5090972;28;20195;-73
2023/10/02 03:52:28;;;;;;;3.37;3.07;;;;;;;18.78;86.65;99836.22;5091398;28;20754;-72
2023/10/02 03:54:56;;;;;;;3.80;3.20;;;;;;;18.75;86.40;99828.59;5091325;28;20548;-73
2023/10/02 03:57:47;;;;;;;3.63;3.33;;;;;;;18.74;85.96;99839.91;5090141;28;20207;-74
2023/10/02 04:00:19;;;;;;;3.10;2.90;;;;;;;18.74;85.70;99845.09;5090670;28;20194;-73
2023/10/02 04:02:46;;;;;;;3.53;3.00;;;;;;;18.63;84.87;99826.69;5090759;28;20239;-73
2023/10/02 04:05:30;;;;;;;2.97;2.83;;;;;;;18.57;85.10;99827.03;5091035;28;20225;-73
2023/10/02 04:08:12;;;;;;;2.20;2.10;;;;;;;18.65;84.59;99845.63;5090712;28;20250;-73
2023/10/02 04:10:55;;;;;;;2.40;2.20;;;;;;;18.64;84.27;99843.13;5090941;28;20204;-72
2023/10/02 04:13:23;;;;;;;5.20;2.80;;;;;;;18.60;83.88;99845.03;5090591;28;20195;-73
2023/10/02 04:15:53;;;;;;;2.80;2.60;;;;;;;18.56;83.68;99848.72;5089468;28;20253;-72
2023/10/02 04:21:09;;;;;;;2.77;2.57;;;;;;;18.51;84.06;99848.16;5089188;28;20199;-73
2023/10/02 04:23:40;;;;;;;2.40;2.30;;;;;;;18.51;84.20;99848.16;5090943;28;20224;-73
2023/10/02 04:26:08;;;;;;;2.07;1.97;;;;;;;18.49;83.82;99855.16;5090647;28;20216;-73
2023/10/02 04:28:49;;;;;;;2.80;2.60;;;;;;;18.48;83.65;99858.66;5090767;28;20201;-73
2023/10/02 04:31:21;;;;;;;3.60;3.40;;;;;;;18.45;83.91;99864.03;5090328;28;20201;-74
2023/10/02 04:34:06;;;;;;;3.30;2.60;;;;;;;18.46;83.16;99873.50;5090474;28;20652;-72
2023/10/02 04:36:40;;;;;;;2.33;2.23;;;;;;;18.45;82.68;99877.00;5090509;28;20200;-73
2023/10/02 04:39:11;;;;;;;5.90;1.97;;;;;;;18.45;82.40;99879.59;5093459;28;20210;-73
2023/10/02 04:42:09;;;;;;;2.83;2.63;;;;;;;18.44;82.20;99872.75;5093879;28;20192;-73
2023/10/02 04:44:25;;;;;;;2.87;2.67;;;;;;;18.46;81.69;99881.28;5093170;28;20198;-73
2023/10/02 04:46:54;;;;;;;2.50;2.23;;;;;;;18.48;82.04;99879.44;5093850;28;20627;-72
2023/10/02 04:49:20;;;;;;;1.87;1.77;;;;;;;18.50;81.92;99882.84;5092376;28;20200;-73
2023/10/02 04:51:46;;;;;;;2.23;2.13;;;;;;;18.49;81.91;99878.53;5091539;28;20204;-73
2023/10/02 04:54:15;;;;;;;2.50;2.37;;;;;;;18.54;81.78;99873.97;5093336;28;20200;-73
2023/10/02 04:56:46;;;;;;;3.87;2.10;;;;;;;18.57;80.97;99873.78;5093645;28;20199;-73
2023/10/02 04:59:13;;;;;;;2.47;2.37;;;;;;;18.64;81.00;99875.09;5092012;28;20210;-73
2023/10/02 05:01:42;;;;;;;2.67;2.57;;;;;;;18.63;80.01;99881.22;5092769;28;20198;-74
2023/10/02 05:04:18;;;;;;;3.30;2.13;;;;;;;18.67;79.55;99887.09;5092688;28;20202;-73
2023/10/02 05:06:55;;;;;;;2.13;1.93;;;;;;;18.69;79.92;99891.28;5092954;28;20217;-73
2023/10/02 05:09:32;;;;;;;2.70;2.50;;;;;;;18.66;79.13;99893.19;5092419;28;20213;-74
2023/10/02 05:12:03;;;;;;;2.13;2.03;;;;;;;18.66;79.29;99899.25;5091869;28;20207;-74
2023/10/02 05:14:32;;;;;;;2.10;2.00;;;;;;;18.67;79.18;99903.53;5092452;28;20359;-73
2023/10/02 05:19:57;;;;;;;2.93;2.00;;;;;;;18.72;77.72;99914.47;5092769;28;20689;-73
2023/10/02 05:22:24;;;;;;;1.90;1.80;;;;;;;18.70;78.13;99916.34;5092827;28;20230;-72
2023/10/02 05:24:58;;;;;;;4.23;2.50;;;;;;;18.72;77.66;99922.28;5093544;28;20236;-71
2023/10/02 05:27:29;;;;;;;1.63;1.53;;;;;;;18.73;77.06;99921.38;5092803;28;20231;-76
2023/10/02 05:29:58;;;;;;;2.30;2.10;;;;;;;18.80;76.29;99932.25;5089549;28;20462;-66
2023/10/02 05:32:29;;;;;;;3.23;1.63;;;;;;;18.89;75.72;99936.94;5092085;28;20213;-65
2023/10/02 05:35:04;;;;;;;1.77;1.67;;;;;;;18.91;75.31;99939.44;5093664;28;20666;-65
2023/10/02 05:37:32;;;;;;;2.00;1.47;;;;;;;18.79;74.15;99913.22;5093393;28;20299;-65
2023/10/02 05:40:37;;;;;;;2.17;1.90;;;;;;;18.95;74.19;99944.38;5093491;28;20591;-66
2023/10/02 05:43:09;;;;;;;1.70;1.60;;;;;;;19.05;73.54;99944.72;5092794;28;20276;-65
2023/10/02 05:45:39;;;;;;;1.37;1.37;;;;;;;19.09;72.95;99943.63;5093043;28;20309;-66
2023/10/02 05:48:14;;;;;;;2.13;2.03;;;;;;;19.18;72.47;99949.13;5091670;28;20291;-65
2023/10/02 05:50:47;;;;;;;2.07;1.80;;;;;;;19.23;71.35;99930.66;5091942;28;20302;-65
2023/10/02 05:53:14;;;;;;;3.50;1.60;;;;;;;19.36;71.25;99948.06;5093339;28;20258;-65
2023/10/02 05:56:04;;;;;;;1.60;1.60;;;;;;;19.38;70.65;99950.59;5093014;28;20197;-64
2023/10/02 05:58:32;;;;;;;1.80;1.70;;;;;;;19.36;70.20;99955.88;5090807;28;20622;-65
2023/10/02 06:01:01;;;;;;;1.17;1.07;;;;;;;19.42;70.14;99962.50;5092470;28;20211;-64
2023/10/02 06:03:34;;;;;;;2.40;1.63;;;;;;;19.50;69.13;99964.69;5090238;28;20636;-64
2023/10/02 06:06:17;;;;;;;1.43;1.33;;;;;;;19.63;68.28;99970.84;5092777;28;20308;-64
2023/10/02 06:08:49;;;;;;;1.50;1.40;;;;;;;19.72;67.94;99965.94;5092117;28;20202;-65
2023/10/02 06:11:31;;;;;;;3.07;1.77;;;;;;;19.86;66.03;99975.53;5092331;28;20226;-65
2023/10/02 06:14:09;;;;;;;2.97;1.40;;;;;;;19.77;65.36;99979.50;5093361;28;20688;-66
2023/10/02 06:16:37;;;;;;;6.23;2.50;;;;;;;19.81;64.54;99975.81;5090577;28;20281;-64
2023/10/02 06:19:06;;;;;;;4.40;4.10;;;;;;;19.89;65.75;99976.19;5089968;28;20602;-65
2023/10/02 06:21:45;;;;;;;1.90;1.80;;;;;;;20.07;64.16;99989.03;5091437;28;20201;-68
2023/10/02 06:24:13;;;;;;;4.40;2.73;;;;;;;20.20;64.40;99987.38;5091332;28;20286;-65
2023/10/02 06:26:49;;;;;;;1.17;1.17;;;;;;;20.32;62.42;99997.09;5091944;28;20223;-67
2023/10/02 06:29:22;;;;;;;1.50;1.40;;;;;;;20.41;62.40;99996.53;5091512;28;21470;-66
2023/10/02 06:31:58;;;;;;;3.23;2.27;;;;;;;20.59;62.49;99990.19;5091848;28;20230;-65
2023/10/02 06:34:36;;;;;;;2.13;1.97;;;;;;;20.66;59.52;99996.69;5089121;28;20677;-65
2023/10/02 06:37:11;;;;;;;1.87;1.77;;;;;;;20.52;59.37;99978.47;5092081;28;20210;-67
2023/10/02 06:39:40;;;;;;;1.57;1.47;;;;;;;20.70;59.81;100003.41;5092737;28;20195;-65
2023/10/02 06:42:07;;;;;;;1.60;1.23;;;;;;;20.72;59.21;99993.69;5092672;28;20669;-66
2023/10/02 06:44:40;;;;;;;1.37;1.27;;;;;;;20.84;59.36;99990.31;5092153;28;20207;-66
2023/10/02 06:47:11;;;;;;;2.27;2.17;;;;;;;20.99;58.52;99992.91;5092446;28;20309;-65
2023/10/02 06:49:40;;;;;;;3.77;2.83;;;;;;;21.15;58.61;99991.03;5089756;28;20196;-66
2023/10/02 06:52:15;;;;;;;1.77;1.60;;;;;;;21.25;57.81;99994.72;5092566;28;20238;-66
2023/10/02 06:54:43;;;;;;;2.27;1.27;;;;;;;21.44;56.87;99997.81;5092966;28;20199;-66
2023/10/02 06:57:13;;;;;;;1.73;1.60;;;;;;;21.54;56.26;99991.06;5090856;28;20655;-67
2023/10/02 06:59:51;;;;;;;2.30;1.20;;;;;;;21.67;55.69;99999.75;5087206;28;20230;-67
2023/10/02 07:02:19;;;;;;;1.80;1.60;;;;;;;21.87;55.74;100001.03;5092382;28;20206;-66
2023/10/02 07:04:47;;;;;;;4.63;1.67;;;;;;;21.94;53.77;99997.91;5092084;28;20234;-71
2023/10/02 07:07:20;;;;;;;3.43;3.00;;;;;;;22.08;55.38;100002.22;5091803;28;20298;-65
2023/10/02 07:09:48;;;;;;;8.63;7.77;;;;;;;22.30;54.11;100002.41;5091912;28;20641;-64
2023/10/02 07:12:14;;;;;;;1.77;1.67;;;;;;;22.47;52.70;100001.25;5089713;28;20203;-65
2023/10/02 07:14:45;;;;;;;1.80;1.70;;;;;;;22.63;53.09;99993.16;5091652;28;20203;-64
2023/10/02 07:17:18;;;;;;;1.60;1.50;;;;;;;22.74;50.84;99991.53;5091522;28;20191;-65
2023/10/02 07:19:48;;;;;;;1.90;1.80;;;;;;;22.72;51.64;100003.84;5091959;28;20224;-65
2023/10/02 07:22:18;;;;;;;1.47;1.37;;;;;;;22.79;50.68;99996.41;5091560;28;20253;-64
2023/10/02 07:24:46;;;;;;;1.20;1.13;;;;;;;22.77;50.45;99996.53;5091974;28;20662;-64
2023/10/02 07:27:26;;;;;;;1.67;1.57;;;;;;;22.75;51.27;99993.16;5092099;28;20302;-64
2023/10/02 07:29:54;;;;;;;1.47;1.37;;;;;;;22.69;49.85;99979.69;5091360;28;20203;-63
2023/10/02 07:32:22;;;;;;;1.27;1.13;;;;;;;22.86;50.20;99995.88;5091279;28;20199;-67
2023/10/02 07:34:50;;;;;;;1.90;1.60;;;;;;;22.92;49.55;99999.81;5091539;28;20200;-64
2023/10/02 07:37:22;;;;;;;3.47;1.87;;;;;;;23.02;49.84;100001.69;5090665;28;20204;-66
2023/10/02 07:39:56;;;;;;;1.60;1.50;;;;;;;23.14;50.20;99999.09;5088614;28;20310;-65
2023/10/02 07:42:24;;;;;;;1.50;1.47;;;;;;;23.26;48.80;100003.47;5091567;28;20670;-65
2023/10/02 07:44:52;;;;;;;1.87;1.77;;;;;;;23.25;49.25;100007.03;5088302;28;20215;-65
2023/10/02 07:47:21;;;;;;;2.37;2.17;;;;;;;23.36;48.75;99992.19;5091127;28;20222;-63
2023/10/02 07:49:51;;;;;;;2.53;1.97;;;;;;;23.45;48.54;99998.59;5089838;28;20251;-64
2023/10/02 07:52:35;;;;;;;2.30;1.80;;;;;;;23.59;47.71;99997.56;5088866;28;20199;-64
2023/10/02 07:55:03;;;;;;;1.37;1.37;;;;;;;23.67;47.35;100009.13;5089961;28;20199;-64
2023/10/02 07:57:35;;;;;;;1.57;1.47;;;;;;;23.78;47.21;100010.97;5086611;28;20365;-63
2023/10/02 08:00:06;;;;;;;2.07;1.93;;;;;;;23.87;48.36;100010.28;5090510;28;20227;-64
2023/10/02 08:02:33;;;;;;;1.33;1.23;;;;;;;23.93;47.42;100013.25;5090591;28;20260;-64
2023/10/02 08:05:03;;;;;;;2.57;1.70;;;;;;;23.94;46.53;100009.66;5089777;28;20249;-63
2023/10/02 08:07:33;;;;;;;2.10;1.67;;;;;;;24.00;46.29;100006.63;5089659;28;20222;-64
2023/10/02 08:10:00;;;;;;;2.00;1.90;;;;;;;23.99;46.44;99973.50;5090519;28;20195;-63
2023/10/02 08:12:30;;;;;;;1.73;1.63;;;;;;;24.29;46.66;100007.03;5089223;28;20195;-64
2023/10/02 08:15:25;;;;;;;5.10;1.60;;;;;;;24.45;45.57;100006.69;5090760;28;20202;-63
2023/10/02 08:18:04;;;;;;;1.63;1.53;;;;;;;24.52;45.03;100002.63;5090444;28;20275;-64
2023/10/02 08:20:34;;;;;;;2.27;1.40;;;;;;;24.55;45.61;99997.16;5090660;28;20257;-65
2023/10/02 08:23:21;;;;;;;2.27;1.37;;;;;;;24.74;44.88;100005.22;5090752;28;20548;-63
2023/10/02 08:26:00;;;;;;;4.63;1.43;;;;;;;24.81;44.81;100014.28;5089008;28;20211;-64
2023/10/02 08:28:29;;;;;;;1.70;1.60;;;;;;;24.80;44.97;100002.13;5090280;28;20571;-64
2023/10/02 08:31:01;;;;;;;2.37;2.13;;;;;;;24.93;45.19;100002.00;5090849;28;20199;-63
2023/10/02 08:33:30;;;;;;;3.20;1.70;;;;;;;25.05;43.34;100004.47;5088719;28;20199;-64
2023/10/02 08:35:58;;;;;;;1.93;1.83;;;;;;;24.90;43.91;99986.50;5089100;28;20606;-65
2023/10/02 08:38:27;;;;;;;1.23;1.13;;;;;;;25.05;43.75;99995.78;5090400;28;20219;-64
2023/10/02 08:40:58;;;;;;;4.07;1.77;;;;;;;25.10;43.78;99992.78;5088830;28;20218;-63
2023/10/02 08:43:26;;;;;;;1.40;1.30;;;;;;;25.11;43.14;99986.56;5090621;28;20203;-65
2023/10/02 08:45:53;;;;;;;1.40;1.30;;;;;;;25.23;46.29;99990.84;5089263;28;20355;-64
2023/10/02 08:48:21;;;;;;;1.47;1.37;;;;;;;25.27;42.40;99990.44;5089963;28;20203;-64
2023/10/02 08:50:48;;;;;;;3.03;1.27;;;;;;;25.37;42.80;99978.25;5090320;28;20207;-64
2023/10/02 08:53:20;;;;;;;1.50;1.33;;;;;;;25.48;42.19;99990.50;5089940;28;20609;-65
2023/10/02 08:55:55;;;;;;;2.97;1.80;;;;;;;25.60;41.48;99979.00;5090790;28;20281;-63
2023/10/02 08:58:27;;;;;;;1.10;1.10;;;;;;;25.67;41.73;99980.16;5089795;28;20199;-63
2023/10/02 09:01:20;;;;;;;2.07;1.97;;;;;;;25.67;41.95;99974.91;5091401;28;20613;-65
2023/10/02 09:04:21;;;;;;;2.27;2.10;;;;;;;25.70;41.84;99964.16;5090999;28;20223;-65
2023/10/02 09:06:41;;;;;;;4.13;1.10;;;;;;;25.93;42.23;99976.19;5090756;28;20641;-65
2023/10/02 09:09:17;;;;;;;2.00;1.90;;;;;;;26.02;43.73;99970.16;5091194;28;20282;-65
2023/10/02 09:11:47;;;;;;;2.60;1.40;;;;;;;26.21;41.56;99977.31;5091336;28;20207;-65
2023/10/02 09:14:16;;;;;;;2.03;1.30;;;;;;;26.31;41.73;99972.09;5091115;28;20234;-64
2023/10/02 09:16:46;;;;;;;1.53;1.40;;;;;;;26.45;39.47;99971.75;5091449;28;20202;-65
2023/10/02 09:22:06;;;;;;;1.93;1.43;;;;;;;26.48;38.38;99976.75;5084927;28;20199;-66
2023/10/02 09:24:34;;;;;;;3.50;1.50;;;;;;;26.41;38.89;99975.59;5094456;28;20286;-65
2023/10/02 09:29:45;;;;;;;3.50;1.83;;;;;;;26.33;38.32;99967.56;5094660;28;20199;-65
2023/10/02 09:32:21;;;;;;;1.67;1.30;;;;;;;26.38;38.65;99967.97;5094555;28;20207;-65
2023/10/02 09:37:35;;;;;;;2.97;1.80;;;;;;;26.48;38.15;99955.69;5090632;28;20197;-65
2023/10/02 09:40:13;;;;;;;1.57;1.47;;;;;;;26.59;37.70;99955.63;5094182;28;20635;-65
2023/10/02 09:42:45;;;;;;;2.43;1.80;;;;;;;26.64;36.87;99958.66;5092387;28;20298;-65
2023/10/02 09:45:16;;;;;;;2.87;2.07;;;;;;;26.63;36.98;99957.81;5094039;28;20206;-64
2023/10/02 09:47:43;;;;;;;3.13;1.63;;;;;;;26.63;35.03;99949.94;5093755;28;20268;-64
2023/10/02 09:50:23;;;;;;;2.57;1.70;;;;;;;26.72;36.54;99958.81;5093603;28;20199;-65
2023/10/02 09:52:59;;;;;;;2.13;1.70;;;;;;;26.77;36.89;99948.72;5093473;28;20257;-64
2023/10/02 09:55:57;;;;;;;3.57;1.50;;;;;;;26.96;35.32;99953.19;5093401;28;20218;-64
2023/10/02 09:58:33;;;;;;;2.00;1.90;;;;;;;27.11;35.77;99952.66;5090022;28;20200;-66
2023/10/02 10:07:06;;;;;;;1.27;1.20;;;;;;;27.09;33.30;99946.72;5092302;28;20222;-64
2023/10/02 10:09:50;;;;;;;2.33;1.37;;;;;;;27.13;34.55;99940.22;5094286;28;20207;-66
2023/10/02 10:12:50;;;;;;;1.50;1.43;;;;;;;27.22;32.96;99953.50;5091262;28;20195;-65
2023/10/02 10:15:25;;;;;;;1.60;1.20;;;;;;;27.31;35.64;99942.13;5093769;28;20198;-65
2023/10/02 10:17:58;;;;;;;1.70;1.60;;;;;;;27.31;33.79;99931.59;5092991;28;20313;-66
2023/10/02 10:20:27;;;;;;;2.50;1.60;;;;;;;27.38;35.12;99932.69;5083456;28;20215;-66
2023/10/02 10:22:56;;;;;;;3.87;1.80;;;;;;;27.20;33.29;99916.78;5093880;28;20203;-66
2023/10/02 10:25:45;;;;;;;2.13;1.10;;;;;;;27.27;34.38;99932.88;5094076;28;20740;-65
2023/10/02 10:28:27;;;;;;;2.23;1.57;;;;;;;27.19;33.47;99928.28;5093676;28;20252;-66
2023/10/02 10:31:01;;;;;;;3.90;1.30;;;;;;;27.26;34.82;99918.03;5093666;28;20282;-66
2023/10/02 10:33:41;;;;;;;2.03;1.30;;;;;;;27.27;33.80;99919.69;5093593;28;20257;-66
2023/10/02 10:36:36;;;;;;;2.03;1.50;;;;;;;27.23;33.25;99918.31;5093446;28;20260;-65
2023/10/02 10:41:57;;;;;;;1.53;1.30;;;;;;;27.24;33.92;99906.81;5080563;28;20267;-65
2023/10/02 10:44:32;;;;;;;3.13;1.67;;;;;;;27.28;33.45;99910.81;5083830;28;20315;-65
2023/10/02 10:47:04;;;;;;;2.60;1.83;;;;;;;27.34;33.79;99915.50;5093369;28;20602;-65
2023/10/02 10:50:11;;;;;;;1.40;1.30;;;;;;;27.44;33.79;99916.38;5093214;28;20196;-65
2023/10/02 10:52:39;;;;;;;3.73;1.07;;;;;;;27.50;32.99;99908.75;5093300;28;20191;-65
2023/10/02 10:58:33;;;;;;;2.37;2.13;;;;;;;27.64;34.88;99904.84;5093294;28;20191;-66
2023/10/02 11:01:02;;;;;;;2.10;1.47;;;;;;;27.78;36.03;99901.75;5080041;28;20671;-66
2023/10/02 11:03:31;;;;;;;1.57;1.20;;;;;;;27.81;32.84;99898.84;5093159;28;20199;-66
2023/10/02 11:06:02;;;;;;;2.00;1.90;;;;;;;27.89;35.00;99901.56;5092986;28;20230;-66
2023/10/02 11:08:30;;;;;;;1.53;1.50;;;;;;;27.93;32.81;99899.47;5093087;28;20214;-66
2023/10/02 11:11:09;;;;;;;1.93;1.83;;;;;;;27.96;33.85;99892.09;5092755;28;20622;-65
2023/10/02 11:13:51;;;;;;;1.53;1.43;;;;;;;27.89;32.97;99891.03;5092902;28;20195;-66
2023/10/02 11:16:31;;;;;;;1.20;1.10;;;;;;;27.94;31.90;99888.81;5093005;28;20199;-67
2023/10/02 11:19:23;;;;;;;2.27;2.17;;;;;;;28.03;32.69;99882.66;5092923;28;20230;-65
2023/10/02 11:22:18;;;;;;;1.70;1.60;;;;;;;28.06;35.06;99878.91;5092281;28;20203;-65
2023/10/02 11:24:46;;;;;;;2.47;1.37;;;;;;;28.01;33.41;99879.31;5090548;28;20583;-65
2023/10/02 11:27:15;;;;;;;1.65;1.55;;;;;;;28.02;34.09;99878.34;5085811;28;20289;-66
2023/10/02 11:29:42;;;;;;;1.60;1.50;;;;;;;28.04;33.36;99881.69;5092882;28;20201;-65
2023/10/02 11:32:22;;;;;;;1.43;1.33;;;;;;;28.07;32.46;99878.78;5092489;28;20694;-66
2023/10/02 11:34:58;;;;;;;1.10;1.10;;;;;;;27.98;31.79;99858.53;5092436;28;20209;-66
2023/10/02 11:37:27;;;;;;;1.63;1.53;;;;;;;28.11;33.29;99869.59;5087010;28;20199;-65
2023/10/02 11:39:55;;;;;;;1.77;1.30;;;;;;;28.10;32.61;99875.84;5092395;28;20723;-66
2023/10/02 11:42:23;;;;;;;1.60;1.50;;;;;;;28.14;33.05;99869.28;5092296;28;20196;-66
2023/10/02 11:44:50;;;;;;;1.40;1.37;;;;;;;28.20;32.27;99877.59;5091909;28;20235;-65
2023/10/02 11:47:17;;;;;;;1.43;1.43;;;;;;;28.17;32.01;99877.91;5091645;28;20217;-66
2023/10/02 11:49:44;;;;;;;2.00;1.30;;;;;;;28.11;31.14;99868.78;5091850;28;20222;-66
2023/10/02 11:52:13;;;;;;;1.90;1.80;;;;;;;28.17;32.36;99879.53;5091432;28;20691;-66
2023/10/02 11:54:40;;;;;;;1.33;1.23;;;;;;;28.19;32.85;99883.84;5091438;28;20218;-65
2023/10/02 11:57:09;;;;;;;1.40;1.30;;;;;;;28.22;31.76;99876.47;5091510;28;20662;-66
2023/10/02 11:59:37;;;;;;;1.40;1.30;;;;;;;28.29;32.78;99877.56;5090991;28;20214;-65
2023/10/02 12:02:05;;;;;;;2.90;1.58;;;;;;;28.24;30.22;99874.50;5091335;28;20203;-65
2023/10/02 12:04:33;;;;;;;1.60;1.50;;;;;;;28.36;32.65;99877.81;5088318;28;20216;-65
2023/10/02 12:07:01;;;;;;;1.17;1.00;;;;;;;28.41;32.71;99875.53;5091166;28;20258;-67
2023/10/02 12:09:29;;;;;;;1.37;1.27;;;;;;;28.34;30.01;99875.28;5090403;28;20204;-66
2023/10/02 12:12:16;;;;;;;1.10;1.08;;;;;;;28.41;30.42;99864.97;5092071;28;20204;-70
2023/10/02 12:14:43;;;;;;;2.40;1.23;;;;;;;28.38;30.46;99865.28;5082889;28;20195;-70
2023/10/02 12:17:11;;;;;;;2.17;1.73;;;;;;;28.34;32.24;99869.19;5091738;28;20227;-69
2023/10/02 12:19:40;;;;;;;1.67;0.83;;;;;;;28.27;31.21;99868.13;5090614;28;20258;-70
2023/10/02 12:22:07;;;;;;;1.43;1.33;;;;;;;28.09;30.74;99858.38;5089841;28;20556;-69
2023/10/02 12:24:35;;;;;;;1.70;1.37;;;;;;;28.14;31.73;99865.84;5090899;28;20187;-69
2023/10/02 12:27:04;;;;;;;1.20;0.90;;;;;;;28.26;31.42;99856.75;5088194;28;20215;-69
2023/10/02 12:29:31;;;;;;;1.23;0.90;;;;;;;28.29;31.92;99860.91;5089730;28;20199;-68
2023/10/02 12:32:00;;;;;;;1.50;1.40;;;;;;;28.28;31.63;99861.88;5091339;28;20203;-70